sensor_id;sensor_type;location;lat;lon;timestamp;temperature;humidity
45491;DHT22;31237;45.586;13.782;2024-02-23T00:01:06;8.90;99.90
45491;DHT22;31237;45.586;13.782;2024-02-23T00:03:32;8.90;99.90
45491;DHT22;31237;45.586;13.782;2024-02-23T00:05:59;9.00;99.90
45491;DHT22;31237;45.586;13.782;2024-02-23T00:08:25;9.00;99.90
45491;DHT22;31237;45.586;13.782;2024-02-23T00:10:51;9.00;99.90
45491;DHT22;31237;45.586;13.782;2024-02-23T00:13:16;8.90;99.90
45491;DHT22;31237;45.586;13.782;2024-02-23T00:15:42;8.90;99.90
45491;DHT22;31237;45.586;13.782;2024-02-23T00:18:09;8.90;99.90
45491;DHT22;31237;45.586;13.782;2024-02-23T00:20:35;8.90;99.90
45491;DHT22;31237;45.586;13.782;2024-02-23T00:23:02;8.90;99.90
45491;DHT22;31237;45.586;13.782;2024-02-23T00:25:28;8.90;99.90
45491;DHT22;31237;45.586;13.782;2024-02-23T00:27:53;8.90;99.90
45491;DHT22;31237;45.586;13.782;2024-02-23T00:30:19;8.90;99.90
45491;DHT22;31237;45.586;13.782;2024-02-23T00:32:45;8.90;99.90
45491;DHT22;31237;45.586;13.782;2024-02-23T00:35:11;8.80;99.90
45491;DHT22;31237;45.586;13.782;2024-02-23T00:37:36;8.90;99.90
45491;DHT22;31237;45.586;13.782;2024-02-23T00:40:03;8.90;99.90
45491;DHT22;31237;45.586;13.782;2024-02-23T00:42:30;8.90;99.90
45491;DHT22;31237;45.586;13.782;2024-02-23T00:44:56;8.80;99.90
45491;DHT22;31237;45.586;13.782;2024-02-23T00:47:21;8.80;99.90
45491;DHT22;31237;45.586;13.782;2024-02-23T00:49:47;8.80;99.90
45491;DHT22;31237;45.586;13.782;2024-02-23T00:52:13;8.80;99.90
45491;DHT22;31237;45.586;13.782;2024-02-23T00:54:39;8.80;99.90
45491;DHT22;31237;45.586;13.782;2024-02-23T00:57:05;8.70;99.90
45491;DHT22;31237;45.586;13.782;2024-02-23T00:59:31;8.80;99.90
45491;DHT22;31237;45.586;13.782;2024-02-23T01:01:56;8.70;99.90
45491;DHT22;31237;45.586;13.782;2024-02-23T01:04:22;8.80;99.90
45491;DHT22;31237;45.586;13.782;2024-02-23T01:06:48;8.70;99.90
45491;DHT22;31237;45.586;13.782;2024-02-23T01:09:14;8.70;99.90
45491;DHT22;31237;45.586;13.782;2024-02-23T01:11:41;8.70;99.90
45491;DHT22;31237;45.586;13.782;2024-02-23T01:14:07;8.70;99.90
45491;DHT22;31237;45.586;13.782;2024-02-23T01:16:33;8.70;99.90
45491;DHT22;31237;45.586;13.782;2024-02-23T01:18:59;8.70;99.90
45491;DHT22;31237;45.586;13.782;2024-02-23T01:21:24;8.70;99.90
45491;DHT22;31237;45.586;13.782;2024-02-23T01:23:50;8.70;99.90
45491;DHT22;31237;45.586;13.782;2024-02-23T01:26:16;8.70;99.90
45491;DHT22;31237;45.586;13.782;2024-02-23T01:28:42;8.70;99.90
45491;DHT22;31237;45.586;13.782;2024-02-23T01:31:11;8.70;99.90
45491;DHT22;31237;45.586;13.782;2024-02-23T01:33:38;8.70;99.90
45491;DHT22;31237;45.586;13.782;2024-02-23T01:36:05;8.70;99.90
45491;DHT22;31237;45.586;13.782;2024-02-23T01:38:31;8.70;99.90
45491;DHT22;31237;45.586;13.782;2024-02-23T01:40:59;8.70;99.90
45491;DHT22;31237;45.586;13.782;2024-02-23T01:43:25;8.70;99.90
45491;DHT22;31237;45.586;13.782;2024-02-23T01:45:51;8.70;99.90
45491;DHT22;31237;45.586;13.782;2024-02-23T01:48:17;8.70;99.90
45491;DHT22;31237;45.586;13.782;2024-02-23T01:50:44;8.70;99.90
45491;DHT22;31237;45.586;13.782;2024-02-23T01:53:12;8.70;99.90
45491;DHT22;31237;45.586;13.782;2024-02-23T01:55:41;8.70;99.90
45491;DHT22;31237;45.586;13.782;2024-02-23T01:58:07;8.60;99.90
45491;DHT22;31237;45.586;13.782;2024-02-23T02:00:35;8.60;99.90
45491;DHT22;31237;45.586;13.782;2024-02-23T02:03:01;8.60;99.90
45491;DHT22;31237;45.586;13.782;2024-02-23T02:05:27;8.60;99.90
45491;DHT22;31237;45.586;13.782;2024-02-23T02:07:55;8.60;99.90
45491;DHT22;31237;45.586;13.782;2024-02-23T02:10:25;8.60;99.90
45491;DHT22;31237;45.586;13.782;2024-02-23T02:12:51;8.60;99.90
45491;DHT22;31237;45.586;13.782;2024-02-23T02:15:17;8.60;99.90
45491;DHT22;31237;45.586;13.782;2024-02-23T02:17:43;8.60;99.90
45491;DHT22;31237;45.586;13.782;2024-02-23T02:20:13;8.60;99.90
45491;DHT22;31237;45.586;13.782;2024-02-23T02:22:40;8.60;99.90
45491;DHT22;31237;45.586;13.782;2024-02-23T02:25:06;8.60;99.90
45491;DHT22;31237;45.586;13.782;2024-02-23T02:27:32;8.60;99.90
45491;DHT22;31237;45.586;13.782;2024-02-23T02:29:58;8.60;99.90
45491;DHT22;31237;45.586;13.782;2024-02-23T02:32:24;8.60;99.90
45491;DHT22;31237;45.586;13.782;2024-02-23T02:34:50;8.60;99.90
45491;DHT22;31237;45.586;13.782;2024-02-23T02:37:15;8.60;99.90
45491;DHT22;31237;45.586;13.782;2024-02-23T02:39:41;8.60;99.90
45491;DHT22;31237;45.586;13.782;2024-02-23T02:42:07;8.60;99.90
45491;DHT22;31237;45.586;13.782;2024-02-23T02:44:33;8.60;99.90
45491;DHT22;31237;45.586;13.782;2024-02-23T02:46:59;8.60;99.90
45491;DHT22;31237;45.586;13.782;2024-02-23T02:49:24;8.60;99.90
45491;DHT22;31237;45.586;13.782;2024-02-23T02:51:50;8.60;99.90
45491;DHT22;31237;45.586;13.782;2024-02-23T02:54:17;8.60;99.90
45491;DHT22;31237;45.586;13.782;2024-02-23T02:56:44;8.60;99.90
45491;DHT22;31237;45.586;13.782;2024-02-23T02:59:12;8.60;99.90
45491;DHT22;31237;45.586;13.782;2024-02-23T03:01:37;8.60;99.90
45491;DHT22;31237;45.586;13.782;2024-02-23T03:04:03;8.60;99.90
45491;DHT22;31237;45.586;13.782;2024-02-23T03:06:29;8.60;99.90
45491;DHT22;31237;45.586;13.782;2024-02-23T03:08:55;8.60;99.90
45491;DHT22;31237;45.586;13.782;2024-02-23T03:11:21;8.50;99.90
45491;DHT22;31237;45.586;13.782;2024-02-23T03:13:47;8.50;99.90
45491;DHT22;31237;45.586;13.782;2024-02-23T03:16:21;8.50;99.90
45491;DHT22;31237;45.586;13.782;2024-02-23T03:18:48;8.60;99.90
45491;DHT22;31237;45.586;13.782;2024-02-23T03:21:15;8.50;99.90
45491;DHT22;31237;45.586;13.782;2024-02-23T03:23:41;8.50;99.90
45491;DHT22;31237;45.586;13.782;2024-02-23T03:26:07;8.50;99.90
45491;DHT22;31237;45.586;13.782;2024-02-23T03:28:33;8.50;99.90
45491;DHT22;31237;45.586;13.782;2024-02-23T03:31:00;8.50;99.90
45491;DHT22;31237;45.586;13.782;2024-02-23T03:33:26;8.50;99.90
45491;DHT22;31237;45.586;13.782;2024-02-23T03:35:52;8.50;99.90
45491;DHT22;31237;45.586;13.782;2024-02-23T03:38:18;8.50;99.90
45491;DHT22;31237;45.586;13.782;2024-02-23T03:40:43;8.50;99.90
45491;DHT22;31237;45.586;13.782;2024-02-23T03:43:09;8.50;99.90
45491;DHT22;31237;45.586;13.782;2024-02-23T03:45:35;8.50;99.90
45491;DHT22;31237;45.586;13.782;2024-02-23T03:48:03;8.50;99.90
45491;DHT22;31237;45.586;13.782;2024-02-23T03:50:29;8.50;99.90
45491;DHT22;31237;45.586;13.782;2024-02-23T03:52:55;8.40;99.90
45491;DHT22;31237;45.586;13.782;2024-02-23T03:55:21;8.50;99.90
45491;DHT22;31237;45.586;13.782;2024-02-23T03:57:48;8.50;99.90
45491;DHT22;31237;45.586;13.782;2024-02-23T04:00:14;8.50;99.90
45491;DHT22;31237;45.586;13.782;2024-02-23T04:02:40;8.40;99.90
45491;DHT22;31237;45.586;13.782;2024-02-23T04:05:06;8.50;99.90
45491;DHT22;31237;45.586;13.782;2024-02-23T04:07:32;8.50;99.90
45491;DHT22;31237;45.586;13.782;2024-02-23T04:09:58;8.50;99.90
45491;DHT22;31237;45.586;13.782;2024-02-23T04:12:24;8.50;99.90
45491;DHT22;31237;45.586;13.782;2024-02-23T04:14:50;8.50;99.90
45491;DHT22;31237;45.586;13.782;2024-02-23T04:17:16;8.40;99.90
45491;DHT22;31237;45.586;13.782;2024-02-23T04:19:43;8.40;99.90
45491;DHT22;31237;45.586;13.782;2024-02-23T04:22:09;8.40;99.90
45491;DHT22;31237;45.586;13.782;2024-02-23T04:24:39;8.40;99.90
45491;DHT22;31237;45.586;13.782;2024-02-23T04:27:08;8.40;99.90
45491;DHT22;31237;45.586;13.782;2024-02-23T04:29:34;8.50;99.90
45491;DHT22;31237;45.586;13.782;2024-02-23T04:32:01;8.40;99.90
45491;DHT22;31237;45.586;13.782;2024-02-23T04:34:27;8.50;99.90
45491;DHT22;31237;45.586;13.782;2024-02-23T04:36:54;8.40;99.90
45491;DHT22;31237;45.586;13.782;2024-02-23T04:39:20;8.40;99.90
45491;DHT22;31237;45.586;13.782;2024-02-23T04:41:46;8.40;99.90
45491;DHT22;31237;45.586;13.782;2024-02-23T04:44:12;8.40;99.90
45491;DHT22;31237;45.586;13.782;2024-02-23T04:46:37;8.40;99.90
45491;DHT22;31237;45.586;13.782;2024-02-23T04:49:03;8.40;99.90
45491;DHT22;31237;45.586;13.782;2024-02-23T04:51:29;8.40;99.90
45491;DHT22;31237;45.586;13.782;2024-02-23T04:53:55;8.40;99.90
45491;DHT22;31237;45.586;13.782;2024-02-23T04:56:21;8.40;99.90
45491;DHT22;31237;45.586;13.782;2024-02-23T04:58:47;8.40;99.90
45491;DHT22;31237;45.586;13.782;2024-02-23T05:01:13;8.40;99.90
45491;DHT22;31237;45.586;13.782;2024-02-23T05:03:39;8.40;99.90
45491;DHT22;31237;45.586;13.782;2024-02-23T05:06:05;8.40;99.90
45491;DHT22;31237;45.586;13.782;2024-02-23T05:08:31;8.40;99.90
45491;DHT22;31237;45.586;13.782;2024-02-23T05:11:00;8.40;99.90
45491;DHT22;31237;45.586;13.782;2024-02-23T05:13:25;8.50;99.90
45491;DHT22;31237;45.586;13.782;2024-02-23T05:15:54;8.50;99.90
45491;DHT22;31237;45.586;13.782;2024-02-23T05:18:20;8.50;99.90
45491;DHT22;31237;45.586;13.782;2024-02-23T05:20:45;8.50;99.90
45491;DHT22;31237;45.586;13.782;2024-02-23T05:23:11;8.50;99.90
45491;DHT22;31237;45.586;13.782;2024-02-23T05:25:37;8.50;99.90
45491;DHT22;31237;45.586;13.782;2024-02-23T05:28:03;8.60;99.90
45491;DHT22;31237;45.586;13.782;2024-02-23T05:30:29;8.60;99.90
45491;DHT22;31237;45.586;13.782;2024-02-23T05:32:57;8.60;99.90
45491;DHT22;31237;45.586;13.782;2024-02-23T05:35:24;8.70;99.90
45491;DHT22;31237;45.586;13.782;2024-02-23T05:37:50;8.70;99.90
45491;DHT22;31237;45.586;13.782;2024-02-23T05:40:16;8.70;99.90
45491;DHT22;31237;45.586;13.782;2024-02-23T05:42:41;8.80;99.90
45491;DHT22;31237;45.586;13.782;2024-02-23T05:45:08;8.80;99.90
45491;DHT22;31237;45.586;13.782;2024-02-23T05:47:39;8.80;99.90
45491;DHT22;31237;45.586;13.782;2024-02-23T05:50:08;8.90;99.90
45491;DHT22;31237;45.586;13.782;2024-02-23T05:52:37;8.90;99.90
45491;DHT22;31237;45.586;13.782;2024-02-23T05:55:03;8.90;99.90
45491;DHT22;31237;45.586;13.782;2024-02-23T05:57:29;8.90;99.90
45491;DHT22;31237;45.586;13.782;2024-02-23T05:59:55;8.90;99.90
45491;DHT22;31237;45.586;13.782;2024-02-23T06:02:21;9.00;99.90
45491;DHT22;31237;45.586;13.782;2024-02-23T06:04:48;9.00;99.90
45491;DHT22;31237;45.586;13.782;2024-02-23T06:07:14;9.00;99.90
45491;DHT22;31237;45.586;13.782;2024-02-23T06:09:44;9.00;99.90
45491;DHT22;31237;45.586;13.782;2024-02-23T06:12:10;9.00;99.90
45491;DHT22;31237;45.586;13.782;2024-02-23T06:14:35;9.00;99.90
45491;DHT22;31237;45.586;13.782;2024-02-23T06:17:02;9.10;99.90
45491;DHT22;31237;45.586;13.782;2024-02-23T06:19:32;9.10;99.90
45491;DHT22;31237;45.586;13.782;2024-02-23T06:21:57;9.10;99.90
45491;DHT22;31237;45.586;13.782;2024-02-23T06:24:23;9.10;99.90
45491;DHT22;31237;45.586;13.782;2024-02-23T06:26:49;9.10;99.90
45491;DHT22;31237;45.586;13.782;2024-02-23T06:29:15;9.10;99.90
45491;DHT22;31237;45.586;13.782;2024-02-23T06:31:40;9.10;99.90
45491;DHT22;31237;45.586;13.782;2024-02-23T06:34:07;9.20;99.90
45491;DHT22;31237;45.586;13.782;2024-02-23T06:36:33;9.20;99.90
45491;DHT22;31237;45.586;13.782;2024-02-23T06:38:59;9.20;99.90
45491;DHT22;31237;45.586;13.782;2024-02-23T06:41:25;9.30;99.90
45491;DHT22;31237;45.586;13.782;2024-02-23T06:43:53;9.30;99.90
45491;DHT22;31237;45.586;13.782;2024-02-23T06:46:19;9.30;99.90
45491;DHT22;31237;45.586;13.782;2024-02-23T06:48:46;9.30;99.90
45491;DHT22;31237;45.586;13.782;2024-02-23T06:51:12;9.40;99.90
45491;DHT22;31237;45.586;13.782;2024-02-23T06:53:38;9.40;99.90
45491;DHT22;31237;45.586;13.782;2024-02-23T06:56:04;9.40;99.90
45491;DHT22;31237;45.586;13.782;2024-02-23T06:58:29;9.40;99.90
45491;DHT22;31237;45.586;13.782;2024-02-23T07:00:55;9.50;99.90
45491;DHT22;31237;45.586;13.782;2024-02-23T07:03:21;9.50;99.90
45491;DHT22;31237;45.586;13.782;2024-02-23T07:05:46;9.60;99.90
45491;DHT22;31237;45.586;13.782;2024-02-23T07:08:13;9.60;99.90
45491;DHT22;31237;45.586;13.782;2024-02-23T07:10:39;9.70;99.90
45491;DHT22;31237;45.586;13.782;2024-02-23T07:13:05;9.70;99.90
45491;DHT22;31237;45.586;13.782;2024-02-23T07:15:32;9.70;99.90
45491;DHT22;31237;45.586;13.782;2024-02-23T07:17:58;9.80;99.90
45491;DHT22;31237;45.586;13.782;2024-02-23T07:20:24;9.80;99.90
45491;DHT22;31237;45.586;13.782;2024-02-23T07:22:50;9.90;99.90
45491;DHT22;31237;45.586;13.782;2024-02-23T07:25:19;9.90;99.90
45491;DHT22;31237;45.586;13.782;2024-02-23T07:27:49;10.00;99.90
45491;DHT22;31237;45.586;13.782;2024-02-23T07:30:15;10.00;99.90
45491;DHT22;31237;45.586;13.782;2024-02-23T07:32:43;10.00;99.90
45491;DHT22;31237;45.586;13.782;2024-02-23T07:35:09;10.10;99.90
45491;DHT22;31237;45.586;13.782;2024-02-23T07:37:36;10.10;99.90
45491;DHT22;31237;45.586;13.782;2024-02-23T07:40:02;10.20;99.90
45491;DHT22;31237;45.586;13.782;2024-02-23T07:42:34;10.20;99.90
45491;DHT22;31237;45.586;13.782;2024-02-23T07:45:04;10.30;99.90
45491;DHT22;31237;45.586;13.782;2024-02-23T07:47:31;10.20;99.90
45491;DHT22;31237;45.586;13.782;2024-02-23T07:49:58;10.30;99.90
45491;DHT22;31237;45.586;13.782;2024-02-23T07:52:24;10.30;99.90
45491;DHT22;31237;45.586;13.782;2024-02-23T07:54:53;10.30;99.90
45491;DHT22;31237;45.586;13.782;2024-02-23T07:57:19;10.30;99.90
45491;DHT22;31237;45.586;13.782;2024-02-23T07:59:46;10.30;99.90
45491;DHT22;31237;45.586;13.782;2024-02-23T08:02:11;10.30;99.90
45491;DHT22;31237;45.586;13.782;2024-02-23T08:04:37;10.30;99.90
45491;DHT22;31237;45.586;13.782;2024-02-23T08:07:04;10.40;99.90
45491;DHT22;31237;45.586;13.782;2024-02-23T08:09:29;10.40;99.90
45491;DHT22;31237;45.586;13.782;2024-02-23T08:11:55;10.40;99.90
45491;DHT22;31237;45.586;13.782;2024-02-23T08:14:21;10.40;99.90
45491;DHT22;31237;45.586;13.782;2024-02-23T08:16:47;10.40;99.90
45491;DHT22;31237;45.586;13.782;2024-02-23T08:19:13;10.40;99.90
45491;DHT22;31237;45.586;13.782;2024-02-23T08:21:38;10.40;99.90
45491;DHT22;31237;45.586;13.782;2024-02-23T08:24:05;10.40;99.90
45491;DHT22;31237;45.586;13.782;2024-02-23T08:26:30;10.50;99.90
45491;DHT22;31237;45.586;13.782;2024-02-23T08:28:56;10.50;99.90
45491;DHT22;31237;45.586;13.782;2024-02-23T08:31:22;10.50;99.90
45491;DHT22;31237;45.586;13.782;2024-02-23T08:33:48;10.50;99.90
45491;DHT22;31237;45.586;13.782;2024-02-23T08:36:13;10.60;99.90
45491;DHT22;31237;45.586;13.782;2024-02-23T08:38:39;10.60;99.90
45491;DHT22;31237;45.586;13.782;2024-02-23T08:41:05;10.60;99.90
45491;DHT22;31237;45.586;13.782;2024-02-23T08:43:31;10.60;99.90
45491;DHT22;31237;45.586;13.782;2024-02-23T08:45:56;10.70;99.90
45491;DHT22;31237;45.586;13.782;2024-02-23T08:48:22;10.70;99.90
45491;DHT22;31237;45.586;13.782;2024-02-23T08:50:48;10.70;99.90
45491;DHT22;31237;45.586;13.782;2024-02-23T08:53:14;10.70;99.90
45491;DHT22;31237;45.586;13.782;2024-02-23T08:55:39;10.80;99.90
45491;DHT22;31237;45.586;13.782;2024-02-23T08:58:05;10.80;99.90
45491;DHT22;31237;45.586;13.782;2024-02-23T09:00:35;10.80;99.90
45491;DHT22;31237;45.586;13.782;2024-02-23T09:03:03;10.80;99.90
45491;DHT22;31237;45.586;13.782;2024-02-23T09:05:28;10.80;99.90
45491;DHT22;31237;45.586;13.782;2024-02-23T09:07:54;10.80;99.90
45491;DHT22;31237;45.586;13.782;2024-02-23T09:10:20;10.80;99.90
45491;DHT22;31237;45.586;13.782;2024-02-23T09:12:46;10.80;99.90
45491;DHT22;31237;45.586;13.782;2024-02-23T09:15:12;10.80;99.90
45491;DHT22;31237;45.586;13.782;2024-02-23T09:17:40;10.80;99.90
45491;DHT22;31237;45.586;13.782;2024-02-23T09:20:07;10.80;99.90
45491;DHT22;31237;45.586;13.782;2024-02-23T09:22:33;10.80;99.90
45491;DHT22;31237;45.586;13.782;2024-02-23T09:24:59;10.80;99.90
45491;DHT22;31237;45.586;13.782;2024-02-23T09:27:25;10.80;99.90
45491;DHT22;31237;45.586;13.782;2024-02-23T09:29:50;10.80;99.90
45491;DHT22;31237;45.586;13.782;2024-02-23T09:32:16;10.80;99.90
45491;DHT22;31237;45.586;13.782;2024-02-23T09:34:42;10.80;99.90
45491;DHT22;31237;45.586;13.782;2024-02-23T09:37:08;10.80;99.90
45491;DHT22;31237;45.586;13.782;2024-02-23T09:39:33;10.80;99.90
45491;DHT22;31237;45.586;13.782;2024-02-23T09:42:01;10.80;99.90
45491;DHT22;31237;45.586;13.782;2024-02-23T09:44:32;10.80;99.90
45491;DHT22;31237;45.586;13.782;2024-02-23T09:47:02;10.80;99.90
45491;DHT22;31237;45.586;13.782;2024-02-23T09:49:39;10.80;99.90
45491;DHT22;31237;45.586;13.782;2024-02-23T09:52:09;10.90;99.90
45491;DHT22;31237;45.586;13.782;2024-02-23T09:54:37;10.90;99.90
45491;DHT22;31237;45.586;13.782;2024-02-23T09:57:07;10.90;99.90
45491;DHT22;31237;45.586;13.782;2024-02-23T09:59:35;10.90;99.90
45491;DHT22;31237;45.586;13.782;2024-02-23T10:02:02;10.90;99.90
45491;DHT22;31237;45.586;13.782;2024-02-23T10:04:30;10.90;99.90
45491;DHT22;31237;45.586;13.782;2024-02-23T10:06:56;11.00;99.90
45491;DHT22;31237;45.586;13.782;2024-02-23T10:09:22;11.00;99.90
45491;DHT22;31237;45.586;13.782;2024-02-23T10:11:54;11.00;99.90
45491;DHT22;31237;45.586;13.782;2024-02-23T10:14:20;11.00;99.90
45491;DHT22;31237;45.586;13.782;2024-02-23T10:16:47;11.00;99.90
45491;DHT22;31237;45.586;13.782;2024-02-23T10:19:12;11.00;99.90
45491;DHT22;31237;45.586;13.782;2024-02-23T10:21:38;11.00;99.90
45491;DHT22;31237;45.586;13.782;2024-02-23T10:24:05;11.00;99.90
45491;DHT22;31237;45.586;13.782;2024-02-23T10:26:31;11.10;99.90
45491;DHT22;31237;45.586;13.782;2024-02-23T10:28:57;11.10;99.90
45491;DHT22;31237;45.586;13.782;2024-02-23T10:31:24;11.20;99.90
45491;DHT22;31237;45.586;13.782;2024-02-23T10:33:50;11.20;99.90
45491;DHT22;31237;45.586;13.782;2024-02-23T10:36:18;11.30;99.90
45491;DHT22;31237;45.586;13.782;2024-02-23T10:38:45;11.30;99.90
45491;DHT22;31237;45.586;13.782;2024-02-23T10:41:17;11.40;99.90
45491;DHT22;31237;45.586;13.782;2024-02-23T10:43:48;11.40;99.90
45491;DHT22;31237;45.586;13.782;2024-02-23T10:46:14;11.40;99.90
45491;DHT22;31237;45.586;13.782;2024-02-23T10:48:44;11.40;99.90
45491;DHT22;31237;45.586;13.782;2024-02-23T10:51:13;11.50;99.90
45491;DHT22;31237;45.586;13.782;2024-02-23T10:53:39;11.50;99.90
45491;DHT22;31237;45.586;13.782;2024-02-23T10:56:07;11.40;99.90
45491;DHT22;31237;45.586;13.782;2024-02-23T10:58:33;11.50;99.90
45491;DHT22;31237;45.586;13.782;2024-02-23T11:01:01;11.50;99.90
45491;DHT22;31237;45.586;13.782;2024-02-23T11:03:33;11.50;99.90
45491;DHT22;31237;45.586;13.782;2024-02-23T11:06:00;11.40;99.90
45491;DHT22;31237;45.586;13.782;2024-02-23T11:08:29;11.40;99.90
45491;DHT22;31237;45.586;13.782;2024-02-23T11:10:55;11.40;99.90
45491;DHT22;31237;45.586;13.782;2024-02-23T11:13:34;11.40;99.90
45491;DHT22;31237;45.586;13.782;2024-02-23T11:16:07;11.40;99.90
45491;DHT22;31237;45.586;13.782;2024-02-23T11:18:35;11.40;99.90
45491;DHT22;31237;45.586;13.782;2024-02-23T11:21:02;11.30;99.90
45491;DHT22;31237;45.586;13.782;2024-02-23T11:23:48;11.30;99.90
45491;DHT22;31237;45.586;13.782;2024-02-23T11:26:14;11.30;99.90
45491;DHT22;31237;45.586;13.782;2024-02-23T11:28:50;11.20;99.90
45491;DHT22;31237;45.586;13.782;2024-02-23T11:31:24;11.20;99.90
45491;DHT22;31237;45.586;13.782;2024-02-23T11:33:54;11.10;99.90
45491;DHT22;31237;45.586;13.782;2024-02-23T11:36:30;11.10;99.90
45491;DHT22;31237;45.586;13.782;2024-02-23T11:38:59;11.00;99.90
45491;DHT22;31237;45.586;13.782;2024-02-23T11:41:25;11.10;99.90
45491;DHT22;31237;45.586;13.782;2024-02-23T11:43:53;11.10;99.90
45491;DHT22;31237;45.586;13.782;2024-02-23T11:46:19;11.10;99.90
45491;DHT22;31237;45.586;13.782;2024-02-23T11:48:45;11.10;99.90
45491;DHT22;31237;45.586;13.782;2024-02-23T11:51:15;11.10;99.90
45491;DHT22;31237;45.586;13.782;2024-02-23T11:53:42;11.10;99.90
45491;DHT22;31237;45.586;13.782;2024-02-23T11:56:09;11.10;99.90
45491;DHT22;31237;45.586;13.782;2024-02-23T11:58:35;11.10;99.90
45491;DHT22;31237;45.586;13.782;2024-02-23T12:01:02;11.10;99.90
45491;DHT22;31237;45.586;13.782;2024-02-23T12:03:28;11.20;99.90
45491;DHT22;31237;45.586;13.782;2024-02-23T12:05:57;11.20;99.90
45491;DHT22;31237;45.586;13.782;2024-02-23T12:08:24;11.20;99.90
45491;DHT22;31237;45.586;13.782;2024-02-23T12:10:55;11.20;99.90
45491;DHT22;31237;45.586;13.782;2024-02-23T12:13:21;11.20;99.90
45491;DHT22;31237;45.586;13.782;2024-02-23T12:15:52;11.20;99.90
45491;DHT22;31237;45.586;13.782;2024-02-23T12:18:21;11.30;99.90
45491;DHT22;31237;45.586;13.782;2024-02-23T12:20:49;11.30;99.90
45491;DHT22;31237;45.586;13.782;2024-02-23T12:23:15;11.30;99.90
45491;DHT22;31237;45.586;13.782;2024-02-23T12:25:58;11.30;99.90
45491;DHT22;31237;45.586;13.782;2024-02-23T12:28:24;11.40;99.90
45491;DHT22;31237;45.586;13.782;2024-02-23T12:31:00;11.40;99.90
45491;DHT22;31237;45.586;13.782;2024-02-23T12:33:31;11.40;99.90
45491;DHT22;31237;45.586;13.782;2024-02-23T12:36:01;11.40;99.90
45491;DHT22;31237;45.586;13.782;2024-02-23T12:38:27;11.50;99.90
45491;DHT22;31237;45.586;13.782;2024-02-23T12:40:53;11.50;99.90
45491;DHT22;31237;45.586;13.782;2024-02-23T12:43:19;11.50;99.90
45491;DHT22;31237;45.586;13.782;2024-02-23T12:45:50;11.60;99.90
45491;DHT22;31237;45.586;13.782;2024-02-23T12:48:17;11.60;99.90
45491;DHT22;31237;45.586;13.782;2024-02-23T12:50:43;11.60;99.90
45491;DHT22;31237;45.586;13.782;2024-02-23T12:56:17;11.70;99.90
45491;DHT22;31237;45.586;13.782;2024-02-23T12:58:44;11.80;99.90
45491;DHT22;31237;45.586;13.782;2024-02-23T13:01:10;11.80;99.90
45491;DHT22;31237;45.586;13.782;2024-02-23T13:03:37;11.70;99.90
45491;DHT22;31237;45.586;13.782;2024-02-23T13:06:04;11.80;99.90
45491;DHT22;31237;45.586;13.782;2024-02-23T13:08:30;11.80;99.90
45491;DHT22;31237;45.586;13.782;2024-02-23T13:10:56;11.80;99.90
45491;DHT22;31237;45.586;13.782;2024-02-23T13:13:23;11.80;99.90
45491;DHT22;31237;45.586;13.782;2024-02-23T13:15:50;11.70;99.90
45491;DHT22;31237;45.586;13.782;2024-02-23T13:18:16;11.80;99.90
45491;DHT22;31237;45.586;13.782;2024-02-23T13:20:42;11.70;99.90
45491;DHT22;31237;45.586;13.782;2024-02-23T13:23:09;11.70;99.90
45491;DHT22;31237;45.586;13.782;2024-02-23T13:25:36;11.70;99.90
45491;DHT22;31237;45.586;13.782;2024-02-23T13:28:02;11.70;99.90
45491;DHT22;31237;45.586;13.782;2024-02-23T13:30:28;11.60;99.90
45491;DHT22;31237;45.586;13.782;2024-02-23T13:32:54;11.60;99.90
45491;DHT22;31237;45.586;13.782;2024-02-23T13:35:20;11.60;99.90
45491;DHT22;31237;45.586;13.782;2024-02-23T13:37:46;11.60;99.90
45491;DHT22;31237;45.586;13.782;2024-02-23T13:40:11;11.60;99.90
45491;DHT22;31237;45.586;13.782;2024-02-23T13:42:37;11.60;99.90
45491;DHT22;31237;45.586;13.782;2024-02-23T13:45:05;11.60;99.90
45491;DHT22;31237;45.586;13.782;2024-02-23T13:47:32;11.50;99.90
45491;DHT22;31237;45.586;13.782;2024-02-23T13:49:58;11.50;99.90
45491;DHT22;31237;45.586;13.782;2024-02-23T13:52:24;11.50;99.90
45491;DHT22;31237;45.586;13.782;2024-02-23T13:54:49;11.50;99.90
45491;DHT22;31237;45.586;13.782;2024-02-23T13:57:15;11.40;99.90
45491;DHT22;31237;45.586;13.782;2024-02-23T13:59:41;11.40;99.90
45491;DHT22;31237;45.586;13.782;2024-02-23T14:02:07;11.40;99.90
45491;DHT22;31237;45.586;13.782;2024-02-23T14:04:33;11.30;99.90
45491;DHT22;31237;45.586;13.782;2024-02-23T14:06:59;11.30;99.90
45491;DHT22;31237;45.586;13.782;2024-02-23T14:09:24;11.30;99.90
45491;DHT22;31237;45.586;13.782;2024-02-23T14:11:51;11.20;99.90
45491;DHT22;31237;45.586;13.782;2024-02-23T14:14:16;11.20;99.90
45491;DHT22;31237;45.586;13.782;2024-02-23T14:16:42;11.20;99.90
45491;DHT22;31237;45.586;13.782;2024-02-23T14:19:08;11.20;99.90
45491;DHT22;31237;45.586;13.782;2024-02-23T14:21:34;11.20;99.90
45491;DHT22;31237;45.586;13.782;2024-02-23T14:24:02;11.20;99.90
45491;DHT22;31237;45.586;13.782;2024-02-23T14:26:29;11.20;99.90
45491;DHT22;31237;45.586;13.782;2024-02-23T14:28:55;11.20;99.90
45491;DHT22;31237;45.586;13.782;2024-02-23T14:31:21;11.20;99.90
45491;DHT22;31237;45.586;13.782;2024-02-23T14:33:46;11.20;99.90
45491;DHT22;31237;45.586;13.782;2024-02-23T14:36:16;11.20;99.90
45491;DHT22;31237;45.586;13.782;2024-02-23T14:38:42;11.10;99.90
45491;DHT22;31237;45.586;13.782;2024-02-23T14:41:08;11.10;99.90
45491;DHT22;31237;45.586;13.782;2024-02-23T14:43:35;11.10;99.90
45491;DHT22;31237;45.586;13.782;2024-02-23T14:46:02;11.10;99.90
45491;DHT22;31237;45.586;13.782;2024-02-23T14:48:28;11.00;99.90
45491;DHT22;31237;45.586;13.782;2024-02-23T14:50:53;11.10;99.90
45491;DHT22;31237;45.586;13.782;2024-02-23T14:53:19;11.10;99.90
45491;DHT22;31237;45.586;13.782;2024-02-23T14:55:45;11.10;99.90
45491;DHT22;31237;45.586;13.782;2024-02-23T14:58:12;11.10;99.90
45491;DHT22;31237;45.586;13.782;2024-02-23T15:00:38;11.10;99.90
45491;DHT22;31237;45.586;13.782;2024-02-23T15:03:04;11.10;99.90
45491;DHT22;31237;45.586;13.782;2024-02-23T15:05:30;11.20;99.90
45491;DHT22;31237;45.586;13.782;2024-02-23T15:07:56;11.20;99.90
45491;DHT22;31237;45.586;13.782;2024-02-23T15:10:22;11.20;99.90
45491;DHT22;31237;45.586;13.782;2024-02-23T15:12:48;11.30;99.90
45491;DHT22;31237;45.586;13.782;2024-02-23T15:15:13;11.20;99.90
45491;DHT22;31237;45.586;13.782;2024-02-23T15:17:39;11.20;99.90
45491;DHT22;31237;45.586;13.782;2024-02-23T15:20:08;11.30;99.90
45491;DHT22;31237;45.586;13.782;2024-02-23T15:22:34;11.30;99.90